createdAt,value
2023-09-08T00:00:44.845Z,5.70
2023-09-08T00:03:11.583Z,5.32
2023-09-08T00:05:38.314Z,5.55
2023-09-08T00:08:05.386Z,5.53
2023-09-08T00:10:32.080Z,5.45
2023-09-08T00:12:58.750Z,5.75
2023-09-08T00:15:25.427Z,5.50
2023-09-08T00:17:52.162Z,4.90
2023-09-08T00:20:18.950Z,5.35
2023-09-08T00:22:45.708Z,5.15
2023-09-08T00:25:12.456Z,5.63
2023-09-08T00:27:40.480Z,5.40
2023-09-08T00:30:08.202Z,5.30
2023-09-08T00:32:34.965Z,5.65
2023-09-08T00:35:01.836Z,4.75
2023-09-08T00:37:28.530Z,5.30
2023-09-08T00:39:55.249Z,5.25
2023-09-08T00:42:21.877Z,5.10
2023-09-08T00:44:49.133Z,5.63
2023-09-08T00:47:16.183Z,5.13
2023-09-08T00:49:42.989Z,5.40
2023-09-08T00:52:09.682Z,5.25
2023-09-08T00:54:36.453Z,5.38
2023-09-08T00:57:04.682Z,5.70
2023-09-08T00:59:33.796Z,4.90
2023-09-08T01:02:00.681Z,5.43
2023-09-08T01:04:28.209Z,5.40
2023-09-08T01:06:56.100Z,5.30
2023-09-08T01:09:24.331Z,5.30
2023-09-08T01:11:52.587Z,5.32
2023-09-08T01:14:20.852Z,5.10
2023-09-08T01:16:47.643Z,5.35
2023-09-08T01:19:17.908Z,5.22
2023-09-08T01:21:48.192Z,4.88
2023-09-08T01:24:24.641Z,5.78
2023-09-08T01:26:51.550Z,5.63
2023-09-08T01:29:19.431Z,5.18
2023-09-08T01:31:46.460Z,5.40
2023-09-08T01:34:14.285Z,5.43
2023-09-08T01:36:41.268Z,5.53
2023-09-08T01:39:08.059Z,5.55
2023-09-08T01:41:34.847Z,5.43
2023-09-08T01:44:06.330Z,5.32
2023-09-08T01:46:35.146Z,5.80
2023-09-08T01:49:02.191Z,5.32
2023-09-08T01:51:28.884Z,5.50
2023-09-08T01:53:55.638Z,5.78
2023-09-08T01:56:24.043Z,5.35
2023-09-08T01:58:50.787Z,5.55
2023-09-08T02:01:17.717Z,5.30
2023-09-08T02:03:44.528Z,5.60
2023-09-08T02:06:11.165Z,6.13
2023-09-08T02:08:38.904Z,5.72
2023-09-08T02:11:07.205Z,5.82
2023-09-08T02:13:33.852Z,6.00
2023-09-08T02:16:00.703Z,6.10
2023-09-08T02:18:27.556Z,5.93
2023-09-08T02:20:54.285Z,5.93
2023-09-08T02:23:21.080Z,6.13
2023-09-08T02:25:47.773Z,6.38
2023-09-08T02:28:14.770Z,5.70
2023-09-08T02:30:41.988Z,5.80
2023-09-08T02:33:08.795Z,5.97
2023-09-08T02:35:39.851Z,5.72
2023-09-08T02:38:07.016Z,5.63
2023-09-08T02:40:35.497Z,5.82
2023-09-08T02:43:04.262Z,6.57
2023-09-08T02:45:33.627Z,5.80
2023-09-08T02:48:01.917Z,5.72
2023-09-08T02:50:29.681Z,5.85
2023-09-08T02:52:56.334Z,5.72
2023-09-08T02:55:22.952Z,6.28
2023-09-08T02:57:49.872Z,5.78
2023-09-08T03:00:16.755Z,6.03
2023-09-08T03:02:43.536Z,6.10
2023-09-08T03:05:10.538Z,5.80
2023-09-08T03:07:38.603Z,6.68
2023-09-08T03:10:06.340Z,6.30
2023-09-08T03:12:33.029Z,5.60
2023-09-08T03:15:02.912Z,6.72
2023-09-08T03:17:29.714Z,6.50
2023-09-08T03:19:56.637Z,6.20
2023-09-08T03:22:24.273Z,6.30
2023-09-08T03:24:51.046Z,5.88
2023-09-08T03:27:17.691Z,6.15
2023-09-08T03:29:44.410Z,6.63
2023-09-08T03:32:12.299Z,6.45
2023-09-08T03:34:40.944Z,5.90
2023-09-08T03:37:08.556Z,6.25
2023-09-08T03:39:35.240Z,6.00
2023-09-08T03:42:02.958Z,6.25
2023-09-08T03:44:29.640Z,6.13
2023-09-08T03:46:56.355Z,6.22
2023-09-08T03:49:23.019Z,6.10
2023-09-08T03:51:51.006Z,5.80
2023-09-08T03:54:17.759Z,6.80
2023-09-08T03:56:44.651Z,7.00
2023-09-08T03:59:11.352Z,6.57
2023-09-08T04:01:38.081Z,6.40
2023-09-08T04:04:05.196Z,6.65
2023-09-08T04:06:31.924Z,6.60
2023-09-08T04:08:58.748Z,6.32
2023-09-08T04:11:26.926Z,6.22
2023-09-08T04:13:53.731Z,6.25
2023-09-08T04:16:20.599Z,6.40
2023-09-08T04:18:47.461Z,7.05
2023-09-08T04:21:14.828Z,5.97
2023-09-08T04:23:41.549Z,6.80
2023-09-08T04:26:08.317Z,6.57
2023-09-08T04:28:34.965Z,6.18
2023-09-08T04:31:01.731Z,6.30
2023-09-08T04:33:29.794Z,6.75
2023-09-08T04:35:56.720Z,6.75
2023-09-08T04:38:23.447Z,6.72
2023-09-08T04:40:50.139Z,7.15
2023-09-08T04:43:17.486Z,7.18
2023-09-08T04:45:44.710Z,6.78
2023-09-08T04:48:11.518Z,6.65
2023-09-08T04:50:39.790Z,6.60
2023-09-08T04:53:08.093Z,6.97
2023-09-08T04:55:34.976Z,6.45
2023-09-08T04:58:01.702Z,6.55
2023-09-08T05:00:28.466Z,7.13
2023-09-08T05:02:56.490Z,6.55
2023-09-08T05:05:23.286Z,7.18
2023-09-08T05:07:50.307Z,6.78
2023-09-08T05:10:17.457Z,6.50
2023-09-08T05:12:44.547Z,7.45
2023-09-08T05:15:16.133Z,7.65
2023-09-08T05:17:46.355Z,7.10
2023-09-08T05:20:13.636Z,7.00
2023-09-08T05:22:40.495Z,7.05
2023-09-08T05:25:07.997Z,7.65
2023-09-08T05:27:35.222Z,6.82
2023-09-08T05:30:01.953Z,6.85
2023-09-08T05:32:29.515Z,7.40
2023-09-08T05:34:56.308Z,7.10
2023-09-08T05:37:23.610Z,7.57
2023-09-08T05:39:50.428Z,7.93
2023-09-08T05:42:17.182Z,7.72
2023-09-08T05:44:44.221Z,7.75
2023-09-08T05:47:10.973Z,7.25
2023-09-08T05:49:37.806Z,6.97
2023-09-08T05:52:05.174Z,7.35
2023-09-08T05:54:33.388Z,6.70
2023-09-08T05:57:00.418Z,7.55
2023-09-08T05:59:27.382Z,7.35
2023-09-08T06:01:54.127Z,6.85
2023-09-08T06:04:20.917Z,6.50
2023-09-08T06:06:50.879Z,7.03
2023-09-08T06:09:17.620Z,6.85
2023-09-08T06:11:44.641Z,7.20
2023-09-08T06:14:12.779Z,7.40
2023-09-08T06:16:41.724Z,7.30
2023-09-08T06:19:09.113Z,7.38
2023-09-08T06:21:35.804Z,6.93
2023-09-08T06:24:02.586Z,6.43
2023-09-08T06:26:29.376Z,6.72
2023-09-08T06:28:57.462Z,7.30
2023-09-08T06:31:24.572Z,6.88
2023-09-08T06:33:53.414Z,7.28
2023-09-08T06:36:20.728Z,7.55
2023-09-08T06:38:48.241Z,7.60
2023-09-08T06:41:14.973Z,7.05
2023-09-08T06:43:43.629Z,6.55
2023-09-08T06:46:15.619Z,8.45
2023-09-08T06:48:42.705Z,11.32
2023-09-08T06:51:09.593Z,8.65
2023-09-08T06:53:38.725Z,8.45
2023-09-08T06:56:05.490Z,6.95
2023-09-08T06:58:33.614Z,7.50
2023-09-08T07:01:00.826Z,6.63
2023-09-08T07:03:28.462Z,8.77
2023-09-08T07:05:56.536Z,7.18
2023-09-08T07:08:24.179Z,7.15
2023-09-08T07:10:55.090Z,7.20
2023-09-08T07:13:22.290Z,8.80
2023-09-08T07:15:49.084Z,7.32
2023-09-08T07:18:16.605Z,7.65
2023-09-08T07:20:49.155Z,6.85
2023-09-08T07:23:19.769Z,6.90
2023-09-08T07:25:48.521Z,7.35
2023-09-08T07:28:16.889Z,7.30
2023-09-08T07:30:44.393Z,6.80
2023-09-08T07:33:12.148Z,6.70
2023-09-08T07:35:40.725Z,6.90
2023-09-08T07:38:08.043Z,7.03
2023-09-08T07:40:35.597Z,7.15
2023-09-08T07:43:02.698Z,6.43
2023-09-08T07:45:29.573Z,6.45
2023-09-08T07:47:56.443Z,7.10
2023-09-08T07:50:25.742Z,6.72
2023-09-08T07:52:53.656Z,6.40
2023-09-08T07:55:23.878Z,7.03
2023-09-08T07:57:51.836Z,7.05
2023-09-08T08:00:18.738Z,6.80
2023-09-08T08:02:50.993Z,6.68
2023-09-08T08:05:18.276Z,6.75
2023-09-08T08:07:45.494Z,7.00
2023-09-08T08:10:13.375Z,6.70
2023-09-08T08:12:40.893Z,6.30
2023-09-08T08:15:08.565Z,6.80
2023-09-08T08:17:35.454Z,6.40
2023-09-08T08:20:10.317Z,6.60
2023-09-08T08:22:38.429Z,6.50
2023-09-08T08:25:05.779Z,6.35
2023-09-08T08:27:32.820Z,10.63
2023-09-08T08:30:01.850Z,9.32
2023-09-08T08:32:29.411Z,11.15
2023-09-08T08:34:57.791Z,6.68
2023-09-08T08:37:24.639Z,12.52
2023-09-08T08:39:51.370Z,7.72
2023-09-08T08:42:18.533Z,6.60
2023-09-08T08:44:46.802Z,5.93
2023-09-08T08:47:15.034Z,6.32
2023-09-08T08:49:44.532Z,6.00
2023-09-08T08:52:13.019Z,6.03
2023-09-08T08:54:41.088Z,5.57
2023-09-08T08:57:08.092Z,5.40
2023-09-08T08:59:35.186Z,6.07
2023-09-08T09:02:04.390Z,5.78
2023-09-08T09:04:32.497Z,5.90
2023-09-08T09:06:59.493Z,5.80
2023-09-08T09:09:26.376Z,5.95
2023-09-08T09:11:53.165Z,5.88
2023-09-08T09:14:20.248Z,5.68
2023-09-08T09:16:48.893Z,7.45
2023-09-08T09:19:28.522Z,5.70
2023-09-08T09:21:56.883Z,5.63
2023-09-08T09:24:34.185Z,6.13
2023-09-08T09:27:02.445Z,5.10
2023-09-08T09:29:29.773Z,5.90
2023-09-08T09:32:07.547Z,5.63
2023-09-08T09:34:34.267Z,5.70
2023-09-08T09:37:00.904Z,5.65
2023-09-08T09:39:28.277Z,5.55
2023-09-08T09:41:57.437Z,5.82
2023-09-08T09:44:25.653Z,5.90
2023-09-08T09:46:53.843Z,6.05
2023-09-08T09:49:21.120Z,6.13
2023-09-08T09:51:49.522Z,5.50
2023-09-08T09:54:16.596Z,5.43
2023-09-08T09:56:46.625Z,5.53
2023-09-08T09:59:15.002Z,5.63
2023-09-08T10:01:43.485Z,4.95
2023-09-08T10:04:11.552Z,4.93
2023-09-08T10:06:40.638Z,5.20
2023-09-08T10:09:14.683Z,5.13
2023-09-08T10:11:51.317Z,4.78
2023-09-08T10:14:19.432Z,5.45
2023-09-08T10:16:50.629Z,5.25
2023-09-08T10:19:18.282Z,5.65
2023-09-08T10:21:49.566Z,4.78
2023-09-08T10:24:24.121Z,4.72
2023-09-08T10:27:05.020Z,5.00
2023-09-08T10:29:33.668Z,4.85
2023-09-08T10:32:01.072Z,5.43
2023-09-08T10:34:30.068Z,4.90
2023-09-08T10:36:57.161Z,5.10
2023-09-08T10:39:36.709Z,5.18
2023-09-08T10:42:19.770Z,5.00
2023-09-08T10:44:50.276Z,5.00
2023-09-08T10:47:21.019Z,5.03
2023-09-08T10:49:47.699Z,4.75
2023-09-08T10:52:14.399Z,5.05
2023-09-08T10:54:51.975Z,4.97
2023-09-08T10:57:21.986Z,5.05
2023-09-08T11:00:06.449Z,4.80
2023-09-08T11:02:40.405Z,4.75
2023-09-08T11:05:12.542Z,5.15
2023-09-08T11:07:40.280Z,4.78
2023-09-08T11:10:08.574Z,5.10
2023-09-08T11:12:36.122Z,5.20
2023-09-08T11:15:06.372Z,4.97
2023-09-08T11:17:35.341Z,4.90
2023-09-08T11:20:10.860Z,5.38
2023-09-08T11:25:09.117Z,4.82
2023-09-08T11:27:36.014Z,4.68
2023-09-08T11:30:02.903Z,4.80
2023-09-08T11:32:37.062Z,4.72
2023-09-08T11:35:08.876Z,4.70
2023-09-08T11:37:40.267Z,4.63
2023-09-08T11:40:15.293Z,4.70
2023-09-08T11:42:46.699Z,4.20
2023-09-08T11:45:21.189Z,4.10
2023-09-08T11:47:48.266Z,4.68
2023-09-08T11:50:18.928Z,5.72
2023-09-08T11:52:47.329Z,4.70
2023-09-08T11:55:14.526Z,4.65
2023-09-08T11:57:42.326Z,4.30
2023-09-08T12:00:12.016Z,4.18
2023-09-08T12:02:38.920Z,4.25
2023-09-08T12:05:05.809Z,4.70
2023-09-08T12:07:32.969Z,4.10
2023-09-08T12:10:00.178Z,4.32
2023-09-08T12:12:27.964Z,4.07
2023-09-08T12:14:54.843Z,4.07
2023-09-08T12:17:25.730Z,4.30
2023-09-08T12:19:53.096Z,4.05
2023-09-08T12:22:23.527Z,4.05
2023-09-08T12:25:00.070Z,4.13
2023-09-08T12:27:27.873Z,4.32
2023-09-08T12:29:59.206Z,4.45
2023-09-08T12:32:27.881Z,4.00
2023-09-08T12:34:54.629Z,4.28
2023-09-08T12:37:30.129Z,4.30
2023-09-08T12:39:57.509Z,3.78
2023-09-08T12:42:29.811Z,4.60
2023-09-08T12:44:57.069Z,3.95
2023-09-08T12:47:23.860Z,4.60
2023-09-08T12:49:52.867Z,3.97
2023-09-08T12:52:19.632Z,4.47
2023-09-08T12:54:46.273Z,4.38
2023-09-08T12:57:12.948Z,4.50
2023-09-08T12:59:39.600Z,4.30
2023-09-08T13:02:06.219Z,4.28
2023-09-08T13:04:32.934Z,4.40
2023-09-08T13:07:01.857Z,4.30
2023-09-08T13:09:28.510Z,4.47
2023-09-08T13:11:55.152Z,4.40
2023-09-08T13:14:21.807Z,4.40
2023-09-08T13:16:48.508Z,4.20
2023-09-08T13:19:15.179Z,4.57
2023-09-08T13:21:41.901Z,4.15
2023-09-08T13:24:09.195Z,4.57
2023-09-08T13:26:35.917Z,4.07
2023-09-08T13:29:02.653Z,4.10
2023-09-08T13:31:29.381Z,4.10
2023-09-08T13:33:56.128Z,4.38
2023-09-08T13:36:22.840Z,4.40
2023-09-08T13:38:49.670Z,4.32
2023-09-08T13:41:16.300Z,4.15
2023-09-08T13:43:45.669Z,4.00
2023-09-08T13:46:13.746Z,3.97
2023-09-08T13:48:42.506Z,3.58
2023-09-08T13:51:10.593Z,3.67
2023-09-08T13:53:42.413Z,3.35
2023-09-08T13:56:09.961Z,3.63
2023-09-08T13:58:48.442Z,3.70
2023-09-08T14:06:21.356Z,4.13
2023-09-08T14:09:25.006Z,3.65
2023-09-08T14:14:22.969Z,4.03
2023-09-08T14:16:49.863Z,3.60
2023-09-08T14:19:16.566Z,4.13
2023-09-08T14:21:43.209Z,3.67
2023-09-08T14:24:09.893Z,3.78
2023-09-08T14:26:36.571Z,4.00
2023-09-08T14:29:04.188Z,3.55
2023-09-08T14:31:31.138Z,4.07
2023-09-08T14:33:58.603Z,4.22
2023-09-08T14:36:25.480Z,3.95
2023-09-08T14:38:52.171Z,3.80
2023-09-08T14:41:18.954Z,4.10
2023-09-08T14:43:45.655Z,3.97
2023-09-08T14:46:12.375Z,3.60
2023-09-08T14:48:39.581Z,3.80
2023-09-08T14:51:06.258Z,3.65
2023-09-08T14:53:33.055Z,3.45
2023-09-08T14:56:00.110Z,3.95
2023-09-08T14:58:32.683Z,4.03
2023-09-08T15:01:04.463Z,3.95
2023-09-08T15:03:37.868Z,4.03
2023-09-08T15:06:04.906Z,3.95
2023-09-08T15:08:31.498Z,3.70
2023-09-08T15:10:58.419Z,4.03
2023-09-08T15:13:25.466Z,4.30
2023-09-08T15:15:52.376Z,4.05
2023-09-08T15:18:20.959Z,3.67
2023-09-08T15:20:56.914Z,3.63
2023-09-08T15:23:23.740Z,3.72
2023-09-08T15:25:55.654Z,3.50
2023-09-08T15:28:22.705Z,3.70
2023-09-08T15:30:50.911Z,3.95
2023-09-08T15:33:18.917Z,3.80
2023-09-08T15:35:46.149Z,4.03
2023-09-08T15:38:13.646Z,4.07
2023-09-08T15:41:18.058Z,4.22
2023-09-08T15:43:50.963Z,3.90
2023-09-08T15:46:18.185Z,3.45
2023-09-08T15:48:45.041Z,4.18
2023-09-08T15:51:12.378Z,4.28
2023-09-08T15:53:39.415Z,4.10
2023-09-08T15:56:07.564Z,4.20
2023-09-08T15:58:35.191Z,4.05
2023-09-08T16:01:02.793Z,4.40
2023-09-08T16:03:29.798Z,4.10
2023-09-08T16:05:56.706Z,3.88
2023-09-08T16:08:25.252Z,3.85
2023-09-08T16:10:52.871Z,4.00
2023-09-08T16:13:21.173Z,3.92
2023-09-08T16:15:47.832Z,3.78
2023-09-08T16:18:14.544Z,3.88
2023-09-08T16:20:41.346Z,4.18
2023-09-08T16:23:08.541Z,4.03
2023-09-08T16:25:35.510Z,3.92
2023-09-08T16:28:02.356Z,3.97
2023-09-08T16:30:30.172Z,4.03
2023-09-08T16:32:56.940Z,4.43
2023-09-08T16:35:23.675Z,4.40
2023-09-08T16:37:50.323Z,4.00
2023-09-08T16:40:17.023Z,3.88
2023-09-08T16:42:46.356Z,4.10
2023-09-08T16:45:14.609Z,3.85
2023-09-08T16:47:42.314Z,4.15
2023-09-08T16:50:09.407Z,4.15
2023-09-08T16:52:36.122Z,4.13
2023-09-08T16:55:03.148Z,4.10
2023-09-08T16:57:29.747Z,3.90
2023-09-08T16:59:56.461Z,4.20
2023-09-08T17:02:23.332Z,4.15
2023-09-08T17:04:50.423Z,4.13
2023-09-08T17:07:17.086Z,3.88
2023-09-08T17:09:43.940Z,4.38
2023-09-08T17:12:10.902Z,4.50
2023-09-08T17:14:37.779Z,4.40
2023-09-08T17:17:04.866Z,4.30
2023-09-08T17:19:31.598Z,4.50
2023-09-08T17:21:59.584Z,4.30
2023-09-08T17:24:27.290Z,4.75
2023-09-08T17:26:56.108Z,4.60
2023-09-08T17:29:22.823Z,4.63
2023-09-08T17:31:49.569Z,4.85
2023-09-08T17:34:23.660Z,5.00
2023-09-08T17:36:55.204Z,4.40
2023-09-08T17:39:21.923Z,4.78
2023-09-08T17:41:51.556Z,4.88
2023-09-08T17:44:20.340Z,5.05
2023-09-08T17:46:47.300Z,4.95
2023-09-08T17:49:14.134Z,4.80
2023-09-08T17:51:40.731Z,5.32
2023-09-08T17:54:07.438Z,4.93
2023-09-08T17:56:34.373Z,5.57
2023-09-08T17:59:01.074Z,5.70
2023-09-08T18:01:27.947Z,5.80
2023-09-08T18:03:54.837Z,5.10
2023-09-08T18:06:21.827Z,5.35
2023-09-08T18:08:52.557Z,5.65
2023-09-08T18:11:21.910Z,5.28
2023-09-08T18:13:49.687Z,5.47
2023-09-08T18:16:16.898Z,5.57
2023-09-08T18:18:47.153Z,5.72
2023-09-08T18:21:14.316Z,5.32
2023-09-08T18:23:41.699Z,5.30
2023-09-08T18:26:08.934Z,5.47
2023-09-08T18:28:35.783Z,5.10
2023-09-08T18:31:02.618Z,5.82
2023-09-08T18:33:30.162Z,5.40
2023-09-08T18:35:56.922Z,5.25
2023-09-08T18:38:23.852Z,5.13
2023-09-08T18:40:50.645Z,5.28
2023-09-08T18:43:19.096Z,5.72
2023-09-08T18:45:46.323Z,5.70
2023-09-08T18:48:13.177Z,5.47
2023-09-08T18:50:39.987Z,5.40
2023-09-08T18:53:06.690Z,6.07
2023-09-08T18:55:34.382Z,5.57
2023-09-08T18:58:01.102Z,5.80
2023-09-08T19:00:27.848Z,6.10
2023-09-08T19:02:54.666Z,6.20
2023-09-08T19:05:21.587Z,6.35
2023-09-08T19:07:49.565Z,6.13
2023-09-08T19:10:16.536Z,6.57
2023-09-08T19:12:43.336Z,6.47
2023-09-08T19:15:10.244Z,6.22
2023-09-08T19:17:37.973Z,6.65
2023-09-08T19:20:05.360Z,6.43
2023-09-08T19:22:32.144Z,6.80
2023-09-08T19:24:59.171Z,6.30
2023-09-08T19:27:25.998Z,6.20
2023-09-08T19:29:53.195Z,5.50
2023-09-08T19:32:19.918Z,6.03
2023-09-08T19:34:46.539Z,6.38
2023-09-08T19:37:13.277Z,5.97
2023-09-08T19:39:40.128Z,6.28
2023-09-08T19:42:06.996Z,6.53
2023-09-08T19:44:33.671Z,5.95
2023-09-08T19:47:00.403Z,6.43
2023-09-08T19:49:27.092Z,6.28
2023-09-08T19:51:53.782Z,6.45
2023-09-08T19:54:20.558Z,6.20
2023-09-08T19:56:47.662Z,6.40
2023-09-08T19:59:19.295Z,6.53
2023-09-08T20:01:47.311Z,6.53
2023-09-08T20:04:14.327Z,6.10
2023-09-08T20:06:46.649Z,5.95
2023-09-08T20:09:14.340Z,6.60
2023-09-08T20:11:42.128Z,6.47
2023-09-08T20:14:09.910Z,6.28
2023-09-08T20:16:36.851Z,5.40
2023-09-08T20:19:03.570Z,5.60
2023-09-08T20:21:30.572Z,5.40
2023-09-08T20:23:57.457Z,6.07
2023-09-08T20:26:24.923Z,5.60
2023-09-08T20:28:51.774Z,5.40
2023-09-08T20:31:18.736Z,5.65
2023-09-08T20:33:46.717Z,5.65
2023-09-08T20:36:14.688Z,5.47
2023-09-08T20:38:42.027Z,5.15
2023-09-08T20:41:12.953Z,5.32
2023-09-08T20:43:41.017Z,5.50
2023-09-08T20:46:08.250Z,6.90
2023-09-08T20:48:37.712Z,7.25
2023-09-08T20:51:07.178Z,5.78
2023-09-08T20:53:37.262Z,5.57
2023-09-08T20:56:04.500Z,5.43
2023-09-08T20:58:31.115Z,5.00
2023-09-08T21:00:59.584Z,5.28
2023-09-08T21:03:26.251Z,5.25
2023-09-08T21:05:52.950Z,5.35
2023-09-08T21:08:20.351Z,5.57
2023-09-08T21:10:48.385Z,5.63
2023-09-08T21:13:15.827Z,5.53
2023-09-08T21:15:43.105Z,5.72
2023-09-08T21:18:09.908Z,5.65
2023-09-08T21:20:36.983Z,5.60
2023-09-08T21:23:06.901Z,5.68
2023-09-08T21:25:34.812Z,5.47
2023-09-08T21:28:02.056Z,5.70
2023-09-08T21:30:28.809Z,5.47
2023-09-08T21:32:55.615Z,5.70
2023-09-08T21:35:22.407Z,5.38
2023-09-08T21:37:49.423Z,5.43
2023-09-08T21:40:17.217Z,5.55
2023-09-08T21:42:44.154Z,6.00
2023-09-08T21:45:11.245Z,5.82
2023-09-08T21:47:37.885Z,5.53
2023-09-08T21:50:05.036Z,5.60
2023-09-08T21:52:38.318Z,5.90
2023-09-08T21:55:06.886Z,6.00
2023-09-08T21:57:33.556Z,5.90
2023-09-08T22:00:00.366Z,5.60
2023-09-08T22:02:27.313Z,5.93
2023-09-08T22:04:54.292Z,6.00
2023-09-08T22:07:21.084Z,6.03
2023-09-08T22:09:47.689Z,6.47
2023-09-08T22:12:17.452Z,6.03
2023-09-08T22:14:44.137Z,6.82
2023-09-08T22:17:10.775Z,6.18
2023-09-08T22:19:37.493Z,5.63
2023-09-08T22:22:04.990Z,5.32
2023-09-08T22:24:31.944Z,5.80
2023-09-08T22:26:58.622Z,5.80
2023-09-08T22:29:25.686Z,6.38
2023-09-08T22:31:52.448Z,6.15
2023-09-08T22:34:20.953Z,5.55
2023-09-08T22:36:48.122Z,5.93
2023-09-08T22:39:14.921Z,5.90
2023-09-08T22:41:43.747Z,5.95
2023-09-08T22:44:10.644Z,6.28
2023-09-08T22:46:37.301Z,6.40
2023-09-08T22:49:04.803Z,6.60
2023-09-08T22:51:31.991Z,6.20
2023-09-08T22:53:58.761Z,6.13
2023-09-08T22:56:25.447Z,5.78
2023-09-08T22:58:52.234Z,6.00
2023-09-08T23:01:20.267Z,6.60
2023-09-08T23:03:47.218Z,6.10
2023-09-08T23:06:14.984Z,6.07
2023-09-08T23:08:41.641Z,6.13
2023-09-08T23:11:08.363Z,6.10
2023-09-08T23:13:35.536Z,6.57
2023-09-08T23:16:02.616Z,6.03
2023-09-08T23:18:29.639Z,6.18
2023-09-08T23:20:56.460Z,6.25
2023-09-08T23:23:23.110Z,6.28
2023-09-08T23:25:51.041Z,6.28
2023-09-08T23:28:17.784Z,6.60
2023-09-08T23:30:44.510Z,6.28
2023-09-08T23:33:11.622Z,6.88
2023-09-08T23:35:38.627Z,6.35
2023-09-08T23:38:27.504Z,6.82
2023-09-08T23:40:58.238Z,6.43
2023-09-08T23:49:12.530Z,6.55
2023-09-08T23:52:06.448Z,7.13
2023-09-08T23:54:36.518Z,6.82
2023-09-08T23:57:05.433Z,6.22
2023-09-08T23:59:52.181Z,6.85
